Time;durP1;ratioP1;P1;durP2;ratioP2;P2;SDS_P1;SDS_P2;PMS_P1;PMS_P2;Temp;Humidity;BMP_temperature;BMP_pressure;BME280_temperature;BME280_humidity;BME280_pressure;Samples;Min_cycle;Max_cycle;Signal;HPM_P1;HPM_P2
2024/02/22 00:02:19;;;;;;;3.95;1.42;;;12.60;89.50;;;;;;5030901;28;20048;-77
2024/02/22 00:04:45;;;;;;;2.28;1.23;;;12.60;89.50;;;;;;5047831;28;20085;-78
2024/02/22 00:07:14;;;;;;;2.45;1.30;;;12.60;89.60;;;;;;5031017;28;20133;-77
2024/02/22 00:09:40;;;;;;;3.97;1.42;;;12.60;89.70;;;;;;5032385;28;20029;-77
2024/02/22 00:12:06;;;;;;;3.35;1.40;;;12.60;89.60;;;;;;5032201;28;20053;-76
2024/02/22 00:14:34;;;;;;;3.22;1.35;;;12.60;89.50;;;;;;5031097;28;20084;-77
2024/02/22 00:17:02;;;;;;;4.45;1.60;;;12.60;89.60;;;;;;5030801;28;20026;-76
2024/02/22 00:19:28;;;;;;;2.00;1.30;;;12.60;89.30;;;;;;5031054;28;20071;-77
2024/02/22 00:21:53;;;;;;;2.05;1.20;;;12.60;89.50;;;;;;5031953;28;20421;-77
2024/02/22 00:24:19;;;;;;;2.83;1.40;;;12.60;89.50;;;;;;5034497;28;20540;-76
2024/02/22 00:26:45;;;;;;;2.97;1.50;;;12.60;89.60;;;;;;5036485;28;20041;-77
2024/02/22 00:29:11;;;;;;;2.00;1.20;;;12.70;89.60;;;;;;5035911;28;20100;-77
2024/02/22 00:31:37;;;;;;;2.05;1.20;;;12.50;89.40;;;;;;5035943;28;20040;-78
2024/02/22 00:34:02;;;;;;;2.67;1.50;;;12.60;89.50;;;;;;5035414;28;20022;-76
2024/02/22 00:36:28;;;;;;;2.38;1.15;;;12.60;89.50;;;;;;5034727;28;20022;-77
2024/02/22 00:38:54;;;;;;;3.30;1.30;;;12.60;89.60;;;;;;5034917;28;20067;-76
2024/02/22 00:41:19;;;;;;;2.90;1.30;;;12.60;89.70;;;;;;5035656;28;20120;-77
2024/02/22 00:43:45;;;;;;;2.65;1.40;;;12.70;89.50;;;;;;5034312;28;20095;-77
2024/02/22 00:46:10;;;;;;;2.20;1.30;;;12.60;89.60;;;;;;5035638;28;20083;-77
2024/02/22 00:48:36;;;;;;;2.53;1.45;;;12.60;89.60;;;;;;5034439;28;20103;-77
2024/02/22 00:51:01;;;;;;;2.00;1.15;;;12.60;89.60;;;;;;5034447;28;20031;-77
2024/02/22 00:53:27;;;;;;;2.25;1.10;;;12.60;89.70;;;;;;5034208;28;20032;-77
2024/02/22 00:55:52;;;;;;;3.42;1.40;;;12.60;89.80;;;;;;5034708;28;20036;-78
2024/02/22 00:58:18;;;;;;;1.90;1.10;;;12.60;89.70;;;;;;5035453;28;20502;-77
2024/02/22 01:00:43;;;;;;;1.90;1.05;;;12.60;89.70;;;;;;5034379;28;20026;-78
2024/02/22 01:03:08;;;;;;;2.10;1.20;;;12.60;89.60;;;;;;5034041;28;20025;-77
2024/02/22 01:05:34;;;;;;;2.50;1.17;;;12.60;89.60;;;;;;5035969;28;20025;-78
2024/02/22 01:07:59;;;;;;;2.83;1.20;;;12.60;89.60;;;;;;5034024;28;20386;-77
2024/02/22 01:10:25;;;;;;;1.45;1.10;;;12.60;89.60;;;;;;5034039;28;20042;-77
2024/02/22 01:12:50;;;;;;;3.10;1.40;;;12.60;89.70;;;;;;5034006;28;20095;-77
2024/02/22 01:15:16;;;;;;;2.13;1.23;;;12.60;89.70;;;;;;5033998;28;20060;-78
2024/02/22 01:17:42;;;;;;;1.95;1.10;;;12.60;89.90;;;;;;5035129;28;20028;-77
2024/02/22 01:20:10;;;;;;;2.05;1.13;;;12.50;89.70;;;;;;5034859;28;20044;-78
2024/02/22 01:22:36;;;;;;;2.38;1.17;;;12.60;89.80;;;;;;5033765;28;20045;-79
2024/02/22 01:25:02;;;;;;;2.25;1.10;;;12.60;89.90;;;;;;5035326;28;20030;-78
2024/02/22 01:27:27;;;;;;;2.65;1.40;;;12.50;89.90;;;;;;5035133;28;20026;-77
2024/02/22 01:29:53;;;;;;;2.28;1.13;;;12.60;90.00;;;;;;5034891;28;20030;-78
2024/02/22 01:32:18;;;;;;;1.98;1.10;;;12.60;90.00;;;;;;5034909;28;20060;-79
2024/02/22 01:34:44;;;;;;;2.45;1.20;;;12.60;90.00;;;;;;5034456;28;20099;-78
2024/02/22 01:37:09;;;;;;;2.33;1.20;;;12.60;89.90;;;;;;5033341;28;20022;-76
2024/02/22 01:39:35;;;;;;;2.20;1.20;;;12.60;89.90;;;;;;5034737;28;20033;-77
2024/02/22 01:42:00;;;;;;;2.25;1.25;;;12.60;90.00;;;;;;5033012;28;20655;-78
2024/02/22 01:44:30;;;;;;;2.00;1.10;;;12.60;90.00;;;;;;5033391;28;20022;-77
2024/02/22 01:46:58;;;;;;;1.75;1.05;;;12.60;90.00;;;;;;5033489;28;20482;-77
2024/02/22 01:49:24;;;;;;;2.55;1.10;;;12.60;90.00;;;;;;5034789;28;20108;-77
2024/02/22 01:51:55;;;;;;;1.70;1.10;;;12.60;90.00;;;;;;5034483;28;20101;-78
2024/02/22 01:54:20;;;;;;;2.03;1.13;;;12.60;90.00;;;;;;5033248;28;20171;-79
2024/02/22 01:56:46;;;;;;;1.95;1.10;;;12.50;90.00;;;;;;5034198;28;20163;-77
2024/02/22 01:59:11;;;;;;;3.05;1.30;;;12.60;90.00;;;;;;5033949;28;20029;-77
2024/02/22 02:01:38;;;;;;;1.77;1.00;;;12.60;90.10;;;;;;5032895;28;20119;-77
2024/02/22 02:04:04;;;;;;;2.13;1.15;;;12.60;90.10;;;;;;5033839;28;20108;-76
2024/02/22 02:06:30;;;;;;;1.85;1.20;;;12.50;90.00;;;;;;5032926;28;20076;-75
2024/02/22 02:08:55;;;;;;;2.00;1.15;;;12.60;90.10;;;;;;5032526;28;20121;-78
2024/02/22 02:11:21;;;;;;;1.80;1.20;;;12.60;90.10;;;;;;5032682;28;20043;-78
2024/02/22 02:13:46;;;;;;;1.92;1.05;;;12.60;90.10;;;;;;5032293;28;20037;-78
2024/02/22 02:16:12;;;;;;;2.47;1.10;;;12.60;90.10;;;;;;5033803;28;20022;-77
2024/02/22 02:18:39;;;;;;;1.67;1.00;;;12.60;90.10;;;;;;5032443;28;20021;-77
2024/02/22 02:21:15;;;;;;;1.92;1.00;;;12.60;90.20;;;;;;5032800;28;20099;-78
2024/02/22 02:24:12;;;;;;;2.13;1.30;;;12.60;90.10;;;;;;5032186;28;20080;-77
2024/02/22 02:26:37;;;;;;;1.92;1.10;;;12.60;90.20;;;;;;5032171;28;20027;-78
2024/02/22 02:29:03;;;;;;;1.58;0.90;;;12.60;90.10;;;;;;5032478;28;20036;-78
2024/02/22 02:31:28;;;;;;;1.75;0.90;;;12.60;90.10;;;;;;5033966;28;20028;-78
2024/02/22 02:33:54;;;;;;;2.17;1.00;;;12.60;90.10;;;;;;5032193;28;20026;-77
2024/02/22 02:36:19;;;;;;;1.25;0.82;;;12.60;90.10;;;;;;5032604;28;20445;-77
2024/02/22 02:38:45;;;;;;;1.63;1.00;;;12.60;90.10;;;;;;5032538;28;20389;-78
2024/02/22 02:41:10;;;;;;;2.25;1.10;;;12.60;90.10;;;;;;5033584;28;20099;-77
2024/02/22 02:43:36;;;;;;;0.98;0.80;;;12.60;90.10;;;;;;5033260;28;20037;-77
2024/02/22 02:46:02;;;;;;;1.48;0.98;;;12.60;90.20;;;;;;5032658;28;20492;-77
2024/02/22 02:48:27;;;;;;;1.73;1.10;;;12.60;90.20;;;;;;5033067;28;20017;-77
2024/02/22 02:50:54;;;;;;;2.35;1.00;;;12.60;90.20;;;;;;5033412;28;20045;-77
2024/02/22 02:53:21;;;;;;;1.50;0.90;;;12.60;90.10;;;;;;5031668;28;20048;-78
2024/02/22 02:55:47;;;;;;;1.10;0.88;;;12.60;90.20;;;;;;5031922;28;20029;-78
2024/02/22 02:58:13;;;;;;;1.10;0.90;;;12.50;90.10;;;;;;5033202;28;20679;-77
2024/02/22 03:00:38;;;;;;;0.90;0.70;;;12.60;90.20;;;;;;5032080;28;20083;-78
2024/02/22 03:03:04;;;;;;;1.50;0.90;;;12.60;90.10;;;;;;5029965;28;20497;-78
2024/02/22 03:05:29;;;;;;;1.55;0.80;;;12.60;90.10;;;;;;5033337;28;20026;-78
2024/02/22 03:07:55;;;;;;;1.02;0.80;;;12.60;90.10;;;;;;5033014;28;20071;-78
2024/02/22 03:10:21;;;;;;;1.30;0.80;;;12.60;90.20;;;;;;5033009;28;20084;-77
2024/02/22 03:12:47;;;;;;;2.15;1.00;;;12.60;90.10;;;;;;5031357;28;20025;-77
2024/02/22 03:15:13;;;;;;;1.67;0.90;;;12.60;90.10;;;;;;5031764;28;20026;-78
2024/02/22 03:17:39;;;;;;;1.55;0.90;;;12.60;90.20;;;;;;5031422;28;20032;-77
2024/02/22 03:20:10;;;;;;;1.40;0.80;;;12.60;90.20;;;;;;5032659;28;20394;-77
2024/02/22 03:22:36;;;;;;;1.15;0.80;;;12.60;90.20;;;;;;5031656;28;20022;-77
2024/02/22 03:25:02;;;;;;;1.05;0.82;;;12.60;90.20;;;;;;5031330;28;20115;-78
2024/02/22 03:27:27;;;;;;;1.20;0.80;;;12.60;90.20;;;;;;5031660;28;20052;-77
2024/02/22 03:29:53;;;;;;;1.55;0.80;;;12.50;90.20;;;;;;5031350;28;20029;-78
2024/02/22 03:32:18;;;;;;;0.95;0.80;;;12.50;90.20;;;;;;5031479;28;20030;-78
2024/02/22 03:34:44;;;;;;;0.80;0.80;;;12.60;90.30;;;;;;5032514;28;20044;-76
2024/02/22 03:37:12;;;;;;;1.27;0.82;;;12.50;90.20;;;;;;5031844;28;20025;-76
2024/02/22 03:39:38;;;;;;;1.00;0.70;;;12.60;90.30;;;;;;5032297;28;20080;-78
2024/02/22 03:42:03;;;;;;;1.25;0.90;;;12.60;90.30;;;;;;5030959;28;20030;-78
2024/02/22 03:44:29;;;;;;;1.20;0.80;;;12.60;90.30;;;;;;5031421;28;20446;-77
2024/02/22 03:46:54;;;;;;;1.42;0.90;;;12.60;90.30;;;;;;5031547;28;20482;-77
2024/02/22 03:49:20;;;;;;;1.10;0.73;;;12.50;90.20;;;;;;5032810;28;20576;-78
2024/02/22 03:51:45;;;;;;;1.00;0.70;;;12.60;90.30;;;;;;5030980;28;20037;-77
2024/02/22 03:54:11;;;;;;;1.40;0.88;;;12.60;90.20;;;;;;5032326;28;20483;-78
2024/02/22 03:56:36;;;;;;;1.25;0.80;;;12.60;90.30;;;;;;5031423;28;20079;-77
2024/02/22 03:59:06;;;;;;;1.50;0.90;;;12.50;90.30;;;;;;5030613;28;20037;-78
2024/02/22 04:01:32;;;;;;;0.95;0.70;;;12.60;90.30;;;;;;5030204;28;20025;-77
2024/02/22 04:04:00;;;;;;;0.93;0.70;;;12.60;90.30;;;;;;5032388;28;20028;-77
2024/02/22 04:06:26;;;;;;;0.90;0.63;;;12.60;90.30;;;;;;5031050;28;20021;-78
2024/02/22 04:08:51;;;;;;;2.00;0.90;;;12.60;90.30;;;;;;5030851;28;20025;-78
2024/02/22 04:11:17;;;;;;;0.73;0.70;;;12.60;90.50;;;;;;5032289;28;20065;-76
2024/02/22 04:13:43;;;;;;;0.95;0.70;;;12.60;90.30;;;;;;5030368;28;20075;-78
2024/02/22 04:16:08;;;;;;;0.65;0.65;;;12.60;90.30;;;;;;5032150;28;20030;-76
2024/02/22 04:18:34;;;;;;;1.08;0.60;;;12.60;90.30;;;;;;5032333;28;20029;-76
2024/02/22 04:21:00;;;;;;;1.20;0.70;;;12.60;90.30;;;;;;5031786;28;20079;-77
2024/02/22 04:23:26;;;;;;;0.90;0.70;;;12.60;90.40;;;;;;5030329;28;20025;-76
2024/02/22 04:25:51;;;;;;;0.80;0.60;;;12.60;90.30;;;;;;5031032;28;20501;-77
2024/02/22 04:28:18;;;;;;;1.10;0.77;;;12.60;90.30;;;;;;5030801;28;20060;-77
2024/02/22 04:30:47;;;;;;;1.13;0.80;;;12.60;90.40;;;;;;5030848;28;20033;-77
2024/02/22 04:33:13;;;;;;;1.13;0.73;;;12.60;90.30;;;;;;5030605;28;20025;-77
2024/02/22 04:35:44;;;;;;;0.95;0.70;;;12.60;90.30;;;;;;5031065;28;20033;-77
2024/02/22 04:38:10;;;;;;;1.23;0.60;;;12.60;90.30;;;;;;5031465;28;20028;-76
2024/02/22 04:40:40;;;;;;;1.10;0.70;;;12.60;90.30;;;;;;5030863;28;20038;-77
2024/02/22 04:43:06;;;;;;;1.50;0.60;;;12.60;90.40;;;;;;5030613;28;20513;-77
2024/02/22 04:45:33;;;;;;;0.70;0.70;;;12.60;90.40;;;;;;5032264;28;20140;-77
2024/02/22 04:48:03;;;;;;;1.20;0.70;;;12.50;90.30;;;;;;5030998;28;20022;-80
2024/02/22 04:50:30;;;;;;;1.48;0.80;;;12.60;90.40;;;;;;5032053;28;20025;-78
2024/02/22 04:52:56;;;;;;;1.00;0.63;;;12.50;90.30;;;;;;5030629;28;20033;-78
2024/02/22 04:55:22;;;;;;;0.70;0.70;;;12.60;90.40;;;;;;5029398;28;20087;-77
2024/02/22 04:57:48;;;;;;;0.63;0.60;;;12.60;90.40;;;;;;5031635;28;20407;-78
2024/02/22 05:00:14;;;;;;;0.60;0.60;;;12.60;90.40;;;;;;5030070;28;20033;-77
2024/02/22 05:02:39;;;;;;;1.08;0.77;;;12.60;90.40;;;;;;5026603;28;20196;-78
2024/02/22 05:05:06;;;;;;;1.40;0.80;;;12.60;90.40;;;;;;5031378;28;20332;-76
2024/02/22 05:07:32;;;;;;;1.02;0.75;;;12.60;90.40;;;;;;5028305;28;20029;-80
2024/02/22 05:09:58;;;;;;;1.02;0.70;;;12.60;90.40;;;;;;5029727;28;20037;-77
2024/02/22 05:12:24;;;;;;;0.80;0.80;;;12.60;90.40;;;;;;5035877;28;20030;-78
2024/02/22 05:14:49;;;;;;;1.65;0.90;;;12.60;90.40;;;;;;5033821;28;20029;-78
2024/02/22 05:17:16;;;;;;;0.80;0.70;;;12.60;90.40;;;;;;5033139;28;20216;-78
2024/02/22 05:19:42;;;;;;;1.00;0.65;;;12.60;90.40;;;;;;5031695;28;20041;-77
2024/02/22 05:22:07;;;;;;;1.30;0.80;;;12.60;90.40;;;;;;5032660;28;20483;-78
2024/02/22 05:24:33;;;;;;;1.02;0.80;;;12.60;90.40;;;;;;5031427;28;20018;-81
2024/02/22 05:26:59;;;;;;;1.00;0.80;;;12.50;90.40;;;;;;5030299;28;20030;-78
2024/02/22 05:29:25;;;;;;;1.33;0.90;;;12.60;90.40;;;;;;5029608;28;20032;-75
2024/02/22 05:31:52;;;;;;;1.15;0.77;;;12.60;90.40;;;;;;5029616;28;20033;-78
2024/02/22 05:34:18;;;;;;;1.48;0.90;;;12.60;90.40;;;;;;5028405;28;20033;-76
2024/02/22 05:36:43;;;;;;;0.88;0.85;;;12.60;90.50;;;;;;5031556;28;20033;-77
2024/02/22 05:39:11;;;;;;;1.17;0.90;;;12.50;90.40;;;;;;5030975;28;20039;-79
2024/02/22 05:41:37;;;;;;;2.00;1.10;;;12.60;90.40;;;;;;5030623;28;20025;-82
2024/02/22 05:44:03;;;;;;;1.40;1.10;;;12.60;90.50;;;;;;5036747;28;20257;-80
2024/02/22 05:46:28;;;;;;;1.25;0.90;;;12.60;90.50;;;;;;5030650;28;20057;-76
2024/02/22 05:48:54;;;;;;;1.42;1.00;;;12.60;90.70;;;;;;5028282;28;20107;-77
2024/02/22 05:51:19;;;;;;;1.83;1.10;;;12.60;90.40;;;;;;5028383;28;20638;-77
2024/02/22 05:53:45;;;;;;;1.67;1.20;;;12.60;90.40;;;;;;5029616;28;20041;-76
2024/02/22 05:56:11;;;;;;;1.73;1.20;;;12.50;90.40;;;;;;5034735;28;20026;-79
2024/02/22 05:58:36;;;;;;;2.25;1.33;;;12.60;90.40;;;;;;5029338;28;20095;-77
2024/02/22 06:01:02;;;;;;;1.98;1.17;;;12.60;90.50;;;;;;5028828;28;20440;-79
2024/02/22 06:03:28;;;;;;;1.92;1.20;;;12.60;90.40;;;;;;5030437;28;20026;-79
2024/02/22 06:05:53;;;;;;;1.73;1.20;;;12.60;90.50;;;;;;5030701;28;20018;-79
2024/02/22 06:08:19;;;;;;;1.63;1.15;;;12.60;90.70;;;;;;5036983;28;20060;-79
2024/02/22 06:10:44;;;;;;;1.95;1.50;;;12.60;90.50;;;;;;5031835;28;20029;-80
2024/02/22 06:13:10;;;;;;;1.48;1.10;;;12.60;90.50;;;;;;5032412;28;20021;-80
2024/02/22 06:15:35;;;;;;;2.28;1.50;;;12.60;90.50;;;;;;5030258;28;20519;-78
2024/02/22 06:18:01;;;;;;;2.15;1.38;;;12.60;90.40;;;;;;5030103;28;20761;-78
2024/02/22 06:20:26;;;;;;;2.80;1.70;;;12.60;90.50;;;;;;5034885;28;20033;-79
2024/02/22 06:22:52;;;;;;;2.58;1.50;;;12.60;90.50;;;;;;5031451;28;20549;-78
2024/02/22 06:25:18;;;;;;;2.20;1.30;;;12.60;90.50;;;;;;5029351;28;20048;-78
2024/02/22 06:27:43;;;;;;;2.58;1.55;;;12.60;90.50;;;;;;5030772;28;20406;-78
2024/02/22 06:30:14;;;;;;;2.47;1.60;;;12.60;90.50;;;;;;5028304;28;20524;-79
2024/02/22 06:32:40;;;;;;;2.35;1.50;;;12.60;90.50;;;;;;5026097;28;20038;-77
2024/02/22 06:35:07;;;;;;;2.88;1.52;;;12.60;90.60;;;;;;5028522;28;20827;-78
2024/02/22 06:37:32;;;;;;;2.88;1.75;;;12.60;90.50;;;;;;5028086;28;20489;-77
2024/02/22 06:39:59;;;;;;;3.70;2.00;;;12.60;90.50;;;;;;5028339;28;20032;-78
2024/02/22 06:42:25;;;;;;;3.30;2.00;;;12.60;90.50;;;;;;5029185;28;20048;-78
2024/02/22 06:44:55;;;;;;;2.70;1.67;;;12.50;90.50;;;;;;5029414;28;20437;-78
2024/02/22 06:47:21;;;;;;;1.90;1.40;;;12.60;90.50;;;;;;5027817;28;20025;-78
2024/02/22 06:49:47;;;;;;;2.60;1.65;;;12.60;90.50;;;;;;5029955;28;20036;-79
2024/02/22 06:52:13;;;;;;;2.80;1.90;;;12.60;90.50;;;;;;5029090;28;20025;-80
2024/02/22 06:54:38;;;;;;;3.58;2.10;;;12.50;90.50;;;;;;5029668;28;20048;-79
2024/02/22 06:57:07;;;;;;;3.28;2.00;;;12.60;90.50;;;;;;5031882;28;20049;-78
2024/02/22 06:59:33;;;;;;;3.13;1.92;;;12.60;90.60;;;;;;5028639;28;20035;-79
2024/02/22 07:01:58;;;;;;;3.75;2.03;;;12.50;90.50;;;;;;5028589;28;20030;-78
2024/02/22 07:04:24;;;;;;;2.63;1.80;;;12.60;90.50;;;;;;5029032;28;20413;-79
2024/02/22 07:06:49;;;;;;;2.75;1.90;;;12.60;90.60;;;;;;5030558;28;20033;-79
2024/02/22 07:09:15;;;;;;;10.23;3.50;;;12.50;90.50;;;;;;5029734;28;20764;-82
2024/02/22 07:11:40;;;;;;;9.07;3.15;;;12.50;90.70;;;;;;5028254;28;20037;-80
2024/02/22 07:14:06;;;;;;;8.68;2.88;;;12.50;90.70;;;;;;5024564;28;20434;-78
2024/02/22 07:16:32;;;;;;;5.32;3.00;;;12.50;90.60;;;;;;5022873;28;20036;-79
2024/02/22 07:18:58;;;;;;;4.90;2.22;;;12.50;90.60;;;;;;5029571;28;20021;-77
2024/02/22 07:21:23;;;;;;;7.28;3.47;;;12.60;90.60;;;;;;5032699;28;20589;-77
2024/02/22 07:23:49;;;;;;;5.97;3.17;;;12.60;90.60;;;;;;5027660;28;20497;-78
2024/02/22 07:26:14;;;;;;;6.80;3.10;;;12.60;90.60;;;;;;5027612;28;20075;-79
2024/02/22 07:28:40;;;;;;;5.22;2.90;;;12.60;90.60;;;;;;5027883;28;20025;-78
2024/02/22 07:31:06;;;;;;;5.63;3.30;;;12.60;90.50;;;;;;5029091;28;20029;-76
2024/02/22 07:33:32;;;;;;;7.03;3.10;;;12.60;90.80;;;;;;5027402;28;20512;-77
2024/02/22 07:35:58;;;;;;;7.05;3.35;;;12.50;90.50;;;;;;5029300;28;20029;-77
2024/02/22 07:38:24;;;;;;;7.45;3.75;;;12.60;90.60;;;;;;5029584;28;20041;-78
2024/02/22 07:40:54;;;;;;;6.95;3.47;;;12.50;90.50;;;;;;5027538;28;20077;-76
2024/02/22 07:43:20;;;;;;;5.25;3.20;;;12.50;90.50;;;;;;5028110;28;20025;-78
2024/02/22 07:45:45;;;;;;;6.35;3.38;;;12.50;90.60;;;;;;5027170;28;20029;-78
2024/02/22 07:48:11;;;;;;;5.22;3.13;;;12.60;90.60;;;;;;5027875;28;20025;-77
2024/02/22 07:50:37;;;;;;;7.65;3.67;;;12.50;90.50;;;;;;5027735;28;20041;-79
2024/02/22 07:53:04;;;;;;;5.55;3.20;;;12.60;90.60;;;;;;5027528;28;20025;-81
2024/02/22 07:55:30;;;;;;;6.78;3.30;;;12.60;90.60;;;;;;5027628;28;20112;-78
2024/02/22 07:57:56;;;;;;;7.80;3.42;;;12.60;90.60;;;;;;5029340;28;20482;-78
2024/02/22 08:00:21;;;;;;;6.03;3.13;;;12.60;90.60;;;;;;5027432;28;20045;-81
2024/02/22 08:02:47;;;;;;;4.95;3.10;;;12.60;90.60;;;;;;5026762;28;20026;-78
2024/02/22 08:05:13;;;;;;;5.60;3.17;;;12.60;90.60;;;;;;5027125;28;20064;-78
2024/02/22 08:07:39;;;;;;;11.05;3.33;;;12.60;90.50;;;;;;5028990;28;20026;-79
2024/02/22 08:10:06;;;;;;;8.18;3.28;;;12.60;90.60;;;;;;5026700;28;20037;-77
2024/02/22 08:12:32;;;;;;;10.18;3.67;;;12.50;90.60;;;;;;5027113;28;20029;-78
2024/02/22 08:14:58;;;;;;;9.73;3.28;;;12.60;90.60;;;;;;5027234;28;20037;-79
2024/02/22 08:17:23;;;;;;;6.30;3.13;;;12.50;90.60;;;;;;5029108;28;20029;-77
2024/02/22 08:19:49;;;;;;;6.63;3.55;;;12.60;90.60;;;;;;5028857;28;20079;-78
2024/02/22 08:22:15;;;;;;;7.57;3.15;;;12.60;90.60;;;;;;5028530;28;20026;-79
2024/02/22 08:24:42;;;;;;;7.30;3.30;;;12.50;90.60;;;;;;5030837;28;20022;-78
2024/02/22 08:27:07;;;;;;;7.68;3.15;;;12.60;90.60;;;;;;5029652;28;20022;-78
2024/02/22 08:29:33;;;;;;;7.43;3.22;;;12.60;90.70;;;;;;5028299;28;20021;-80
2024/02/22 08:31:58;;;;;;;7.75;3.60;;;12.60;90.60;;;;;;5029222;28;20026;-76
2024/02/22 08:34:24;;;;;;;10.82;3.70;;;12.60;90.60;;;;;;5027413;28;20044;-80
2024/02/22 08:36:51;;;;;;;5.88;3.25;;;12.60;90.60;;;;;;5030040;28;20044;-80
2024/02/22 08:39:18;;;;;;;7.47;3.20;;;12.50;90.60;;;;;;5035059;28;20014;-78
2024/02/22 08:41:43;;;;;;;6.78;3.50;;;12.60;90.60;;;;;;5030065;28;20029;-78
2024/02/22 08:44:09;;;;;;;7.57;3.45;;;12.60;90.60;;;;;;5028334;28;20021;-77
2024/02/22 08:46:37;;;;;;;5.75;3.30;;;12.60;90.60;;;;;;5032450;28;20045;-78
2024/02/22 08:49:02;;;;;;;5.53;3.10;;;12.60;90.60;;;;;;5031343;28;20028;-79
2024/02/22 08:51:28;;;;;;;8.05;3.00;;;12.60;90.60;;;;;;5031661;28;20033;-77
2024/02/22 08:53:53;;;;;;;7.05;3.38;;;12.60;90.60;;;;;;5033529;28;20029;-78
2024/02/22 08:56:19;;;;;;;8.60;3.20;;;12.60;90.60;;;;;;5031290;28;20307;-80
2024/02/22 08:58:44;;;;;;;5.28;3.22;;;12.60;90.60;;;;;;5030835;28;20097;-79
2024/02/22 09:01:13;;;;;;;7.63;3.50;;;12.60;90.60;;;;;;5032827;28;20696;-75
2024/02/22 09:03:38;;;;;;;4.70;2.88;;;12.60;90.60;;;;;;5031660;28;20525;-78
2024/02/22 09:06:04;;;;;;;8.75;3.10;;;12.60;90.60;;;;;;5032756;28;20021;-80
2024/02/22 09:08:31;;;;;;;6.07;2.65;;;12.60;90.70;;;;;;5032567;28;20718;-79
2024/02/22 09:10:56;;;;;;;7.47;3.05;;;12.60;90.70;;;;;;5030885;28;20021;-78
2024/02/22 09:13:22;;;;;;;5.88;3.00;;;12.60;90.70;;;;;;5031480;28;20083;-80
2024/02/22 09:15:51;;;;;;;4.75;2.78;;;12.50;90.60;;;;;;5031054;28;20515;-78
2024/02/22 09:18:17;;;;;;;5.15;2.85;;;12.60;90.60;;;;;;5033202;28;20109;-80
2024/02/22 09:20:43;;;;;;;5.38;2.92;;;12.60;90.60;;;;;;5033698;28;20037;-80
2024/02/22 09:23:08;;;;;;;7.75;3.38;;;12.60;90.60;;;;;;5034306;28;20026;-81
2024/02/22 09:25:34;;;;;;;4.35;2.80;;;12.60;90.60;;;;;;5032317;28;20060;-79
2024/02/22 09:28:00;;;;;;;5.80;3.00;;;12.60;90.60;;;;;;5033258;28;20053;-78
2024/02/22 09:30:25;;;;;;;5.10;3.00;;;12.60;90.60;;;;;;5032225;28;20075;-78
2024/02/22 09:32:51;;;;;;;7.40;3.15;;;12.60;90.60;;;;;;5032079;28;20026;-80
2024/02/22 09:35:19;;;;;;;5.78;3.20;;;12.70;90.60;;;;;;5032605;28;20029;-79
2024/02/22 09:41:04;;;;;;;5.57;3.13;;;12.90;90.70;;;;;;5072531;28;20085;-77
2024/02/22 09:43:30;;;;;;;4.85;2.88;;;12.60;90.60;;;;;;5054449;28;20029;-78
2024/02/22 09:45:56;;;;;;;5.38;3.10;;;12.60;90.60;;;;;;5054019;28;20468;-77
2024/02/22 09:48:25;;;;;;;6.97;2.85;;;12.60;90.60;;;;;;5059874;28;20044;-79
2024/02/22 09:50:51;;;;;;;4.88;3.20;;;12.50;90.60;;;;;;5054564;28;20111;-76
2024/02/22 09:53:18;;;;;;;4.68;2.53;;;12.60;90.60;;;;;;5056870;28;20017;-79
2024/02/22 09:55:45;;;;;;;7.22;2.92;;;12.60;90.60;;;;;;5056480;28;20016;-78
2024/02/22 09:58:11;;;;;;;5.05;2.80;;;12.60;90.60;;;;;;5056609;28;20016;-77
2024/02/22 10:00:36;;;;;;;4.90;2.92;;;12.60;90.60;;;;;;5056660;28;20100;-79
2024/02/22 10:03:02;;;;;;;4.88;2.90;;;12.60;90.60;;;;;;5056284;28;20461;-79
2024/02/22 10:05:37;;;;;;;4.88;2.80;;;12.60;90.60;;;;;;5056791;28;20104;-78
2024/02/22 10:08:17;;;;;;;4.47;2.55;;;12.60;90.60;;;;;;5056698;28;20052;-78
2024/02/22 10:10:45;;;;;;;5.38;2.83;;;12.60;90.60;;;;;;5056733;28;20109;-78
2024/02/22 10:13:20;;;;;;;4.18;2.45;;;12.60;90.60;;;;;;5056247;28;20024;-79
2024/02/22 10:15:46;;;;;;;4.45;2.63;;;12.60;90.60;;;;;;5056350;28;20075;-78
2024/02/22 10:18:11;;;;;;;7.68;2.70;;;12.60;90.60;;;;;;5074530;28;20021;-78
2024/02/22 10:20:37;;;;;;;4.97;2.75;;;12.70;90.60;;;;;;5074482;28;20028;-79
2024/02/22 10:23:06;;;;;;;5.53;2.30;;;12.70;90.60;;;;;;5074339;28;20526;-78
2024/02/22 10:25:32;;;;;;;4.30;2.63;;;12.60;90.60;;;;;;5056485;28;20013;-78
2024/02/22 10:27:58;;;;;;;4.35;2.58;;;12.70;90.60;;;;;;5074595;28;20034;-78
2024/02/22 10:30:26;;;;;;;5.10;2.50;;;12.70;90.60;;;;;;5056341;28;20032;-77
2024/02/22 10:32:55;;;;;;;3.90;2.30;;;12.70;90.60;;;;;;5055902;28;20017;-78
2024/02/22 10:35:23;;;;;;;4.18;2.50;;;12.70;90.60;;;;;;5056372;28;20438;-78
2024/02/22 10:37:53;;;;;;;4.70;2.60;;;12.70;90.60;;;;;;5074416;28;20503;-78
2024/02/22 10:40:19;;;;;;;4.50;2.20;;;12.70;90.50;;;;;;5056290;28;20032;-77
2024/02/22 10:42:45;;;;;;;3.63;2.30;;;12.70;90.50;;;;;;5073917;28;20035;-78
2024/02/22 10:45:11;;;;;;;4.25;2.38;;;12.80;90.40;;;;;;5056352;28;20020;-78
2024/02/22 10:47:40;;;;;;;3.30;2.20;;;12.90;90.10;;;;;;5074019;28;20023;-78
2024/02/22 10:50:06;;;;;;;3.45;2.20;;;12.90;90.10;;;;;;5073845;28;20020;-78
2024/02/22 10:52:42;;;;;;;3.63;2.30;;;13.00;90.00;;;;;;5055702;28;20021;-78
2024/02/22 10:55:15;;;;;;;6.40;2.50;;;13.00;90.00;;;;;;5055794;28;20487;-78
2024/02/22 10:57:44;;;;;;;3.72;2.00;;;13.00;90.00;;;;;;5055921;28;20016;-78
2024/02/22 11:00:11;;;;;;;3.83;2.15;;;13.00;90.00;;;;;;5055701;28;20103;-77
2024/02/22 11:02:37;;;;;;;5.65;2.17;;;13.00;90.00;;;;;;5055750;28;20157;-78
2024/02/22 11:05:07;;;;;;;4.28;2.15;;;13.00;90.00;;;;;;5055660;28;20017;-78
2024/02/22 11:07:51;;;;;;;3.63;2.10;;;13.00;90.10;;;;;;5055331;28;20595;-78
2024/02/22 11:10:20;;;;;;;3.28;2.00;;;13.00;90.10;;;;;;5073631;28;20437;-78
2024/02/22 11:12:45;;;;;;;3.38;2.08;;;12.90;90.10;;;;;;5055437;28;20074;-77
2024/02/22 11:15:13;;;;;;;6.13;2.10;;;12.90;90.10;;;;;;5073651;28;20024;-78
2024/02/22 11:17:51;;;;;;;3.30;2.00;;;12.90;90.10;;;;;;5055624;28;20078;-76
2024/02/22 11:20:17;;;;;;;3.03;1.83;;;12.90;90.10;;;;;;5055471;28;20016;-79
2024/02/22 11:22:42;;;;;;;4.22;2.28;;;12.90;90.10;;;;;;5073253;28;20020;-78
2024/02/22 11:25:09;;;;;;;2.75;1.80;;;12.90;90.10;;;;;;5055259;28;20107;-78
2024/02/22 11:27:36;;;;;;;3.28;1.90;;;12.90;90.10;;;;;;5054904;28;20044;-79
2024/02/22 11:30:15;;;;;;;4.32;1.90;;;12.90;90.20;;;;;;5070274;28;20013;-77
2024/02/22 11:32:41;;;;;;;2.40;1.70;;;12.90;90.20;;;;;;5035271;28;20479;-78
2024/02/22 11:35:07;;;;;;;3.65;1.98;;;12.90;90.20;;;;;;5053292;28;20017;-78
2024/02/22 11:37:32;;;;;;;3.83;1.80;;;12.90;90.20;;;;;;5052847;28;20028;-77
2024/02/22 11:39:59;;;;;;;2.80;1.80;;;12.90;90.20;;;;;;5051409;28;20484;-78
2024/02/22 11:42:25;;;;;;;3.30;1.98;;;12.90;90.20;;;;;;5051300;28;20776;-79
2024/02/22 11:44:51;;;;;;;2.78;1.70;;;12.90;90.30;;;;;;5051218;28;20070;-79
2024/02/22 11:47:17;;;;;;;3.53;1.80;;;12.90;90.30;;;;;;5035088;28;20362;-79
2024/02/22 11:49:43;;;;;;;2.78;1.77;;;12.90;90.30;;;;;;5051640;28;20032;-78
2024/02/22 11:52:09;;;;;;;2.75;1.70;;;12.90;90.30;;;;;;5051239;28;20146;-78
2024/02/22 11:54:36;;;;;;;2.78;1.50;;;12.90;90.30;;;;;;5052718;28;20025;-80
2024/02/22 11:57:02;;;;;;;2.50;1.60;;;12.80;90.30;;;;;;5052476;28;20017;-81
2024/02/22 11:59:32;;;;;;;3.17;1.80;;;12.90;90.30;;;;;;5051269;28;20036;-82
2024/02/22 12:02:01;;;;;;;3.05;1.75;;;12.80;90.30;;;;;;5051265;28;20021;-80
2024/02/22 12:04:32;;;;;;;2.42;1.50;;;12.90;90.40;;;;;;5052602;28;20048;-81
2024/02/22 12:07:00;;;;;;;2.75;1.70;;;12.80;90.30;;;;;;5052484;28;20013;-80
2024/02/22 12:09:27;;;;;;;2.08;1.50;;;12.80;90.40;;;;;;5034814;28;20469;-80
2024/02/22 12:11:52;;;;;;;2.30;1.52;;;12.80;90.40;;;;;;5051123;28;20048;-79
2024/02/22 12:14:18;;;;;;;3.38;1.65;;;12.80;90.40;;;;;;5052504;28;20044;-80
2024/02/22 12:16:46;;;;;;;2.42;1.70;;;12.80;90.40;;;;;;5034389;28;20485;-78
2024/02/22 12:19:16;;;;;;;1.77;1.30;;;12.80;90.40;;;;;;5054448;28;20024;-80
2024/02/22 12:21:42;;;;;;;3.30;1.80;;;12.80;90.40;;;;;;5055716;28;20077;-79
2024/02/22 12:24:09;;;;;;;3.30;1.90;;;12.80;90.40;;;;;;5055198;28;20016;-81
2024/02/22 12:26:34;;;;;;;3.33;1.80;;;12.80;90.50;;;;;;5056884;28;20017;-81
2024/02/22 12:29:01;;;;;;;2.88;1.70;;;12.80;90.50;;;;;;5055345;28;20017;-81
2024/02/22 12:31:29;;;;;;;2.58;1.50;;;12.80;90.50;;;;;;5056106;28;20103;-80
2024/02/22 12:33:57;;;;;;;2.60;1.70;;;12.80;90.50;;;;;;5054779;28;20100;-81
2024/02/22 12:36:23;;;;;;;2.00;1.42;;;12.80;90.50;;;;;;5054769;28;20553;-81
2024/02/22 12:38:49;;;;;;;2.47;1.70;;;12.80;90.50;;;;;;5055151;28;20028;-81
2024/02/22 12:41:16;;;;;;;2.03;1.40;;;12.70;90.50;;;;;;5056326;28;20025;-82
2024/02/22 12:43:49;;;;;;;2.42;1.55;;;12.80;90.50;;;;;;5056344;28;20079;-81
2024/02/22 12:46:15;;;;;;;2.33;1.48;;;12.80;90.50;;;;;;5054965;28;20414;-81